Cartersburg, Indiana
Current Conditions -  °F | °C
As of 10:54 PM on Sunday 23 Nov 2014 (Local Time) from KIND Reporting Station
Light Rain Light Rain  
Wind Chill: 53°   Ceiling: 900
Heat Index: 53°   Visibility: 6mi
Dew Point: 53°   Wind: 18mph
Humidity: 100%   Direction: 170°S
Pressure: 29.16"   Gusts: 28mph
Location:  39.7°N, 86.46°W
Report Text: KIND 240354Z 17016G24KT 6SM -RA BR BKN009 OVC017 12/12 A2916 RMK AO2 SLP872 P0016 T01170117
Loading
Personal Weather Stations






























Interactive Weather Map New forecast layout! Learn more

10-Day Weather Forecast

Advertisements
Track Severe Weather on mobile